Time;durP1;ratioP1;P1;durP2;ratioP2;P2;SDS_P1;SDS_P2;PMS_P1;PMS_P2;Temp;Humidity;BMP_temperature;BMP_pressure;BME280_temperature;BME280_humidity;BME280_pressure;Samples;Min_cycle;Max_cycle;Signal;HPM_P1;HPM_P2
2022/10/13 00:01:54;;;;;;;0.75;0.73;;;8.20;99.90;;;;;;4392510;32;20102;-78
2022/10/13 00:04:19;;;;;;;0.70;0.70;;;8.20;99.90;;;;;;4375937;32;20090;-78
2022/10/13 00:06:45;;;;;;;0.82;0.68;;;8.20;99.90;;;;;;4378605;32;20065;-78
2022/10/13 00:09:10;;;;;;;3.05;1.25;;;8.20;99.90;;;;;;4391277;32;20086;-78
2022/10/13 00:11:36;;;;;;;0.57;0.57;;;8.20;99.90;;;;;;4392688;32;20070;-78
2022/10/13 00:14:03;;;;;;;2.17;1.00;;;8.20;99.90;;;;;;4393927;32;20128;-77
2022/10/13 00:16:30;;;;;;;1.10;1.02;;;8.30;99.90;;;;;;4390517;32;20070;-78
2022/10/13 00:18:56;;;;;;;1.37;0.68;;;8.20;99.90;;;;;;4390268;32;20086;-78
2022/10/13 00:21:25;;;;;;;0.98;0.98;;;8.20;99.90;;;;;;4394060;32;20514;-78
2022/10/13 00:23:52;;;;;;;0.65;0.65;;;8.10;99.90;;;;;;4393763;32;20117;-77
2022/10/13 00:26:19;;;;;;;0.70;0.70;;;8.20;99.90;;;;;;4393420;32;20162;-77
2022/10/13 00:28:45;;;;;;;0.55;0.55;;;8.10;99.90;;;;;;4393236;32;20530;-78
2022/10/13 00:31:22;;;;;;;0.60;0.60;;;8.10;99.90;;;;;;4391453;32;20066;-78
2022/10/13 00:33:48;;;;;;;6.45;0.88;;;8.20;99.90;;;;;;4382088;32;20476;-78
2022/10/13 00:36:14;;;;;;;1.02;0.93;;;8.00;99.90;;;;;;4374811;32;20082;-78
2022/10/13 00:38:40;;;;;;;0.35;0.35;;;8.00;99.90;;;;;;4392194;32;20070;-78
2022/10/13 00:41:06;;;;;;;0.50;0.50;;;8.00;99.90;;;;;;4391348;32;20070;-77
2022/10/13 00:43:54;;;;;;;0.90;0.90;;;7.90;99.90;;;;;;4393790;32;20415;-78
2022/10/13 00:46:21;;;;;;;5.85;1.00;;;7.90;99.90;;;;;;4383818;32;20073;-77
2022/10/13 00:48:49;;;;;;;2.95;1.08;;;7.90;99.90;;;;;;4392466;32;20071;-78
2022/10/13 00:51:18;;;;;;;1.00;0.93;;;7.90;99.90;;;;;;4393472;32;20074;-77
2022/10/13 00:53:45;;;;;;;0.80;0.80;;;7.90;99.90;;;;;;4391832;32;20070;-78
2022/10/13 00:56:13;;;;;;;0.45;0.45;;;7.90;99.90;;;;;;4392188;32;20066;-78
2022/10/13 00:58:41;;;;;;;0.55;0.55;;;8.00;99.90;;;;;;4391760;32;20169;-78
2022/10/13 01:01:07;;;;;;;0.70;0.70;;;8.00;99.90;;;;;;4389913;32;20117;-77
2022/10/13 01:03:32;;;;;;;0.45;0.45;;;7.90;99.90;;;;;;4382550;32;20572;-78
2022/10/13 01:06:02;;;;;;;0.50;0.50;;;7.90;99.90;;;;;;4374386;32;20882;-78
2022/10/13 01:08:28;;;;;;;2.67;1.17;;;7.90;99.90;;;;;;4389993;32;20070;-78
2022/10/13 01:11:19;;;;;;;0.65;0.65;;;7.90;99.90;;;;;;4392304;32;20507;-77
2022/10/13 01:13:55;;;;;;;1.10;1.00;;;8.00;99.90;;;;;;4381846;32;20117;-78
2022/10/13 01:16:46;;;;;;;0.68;0.60;;;8.00;99.90;;;;;;4391967;32;20528;-78
2022/10/13 01:19:31;;;;;;;;;;;7.90;99.90;;;;;;4391382;32;20505;-77
2022/10/13 01:22:26;;;;;;;0.50;0.50;;;7.90;99.90;;;;;;4381442;32;20031;-77
2022/10/13 01:24:57;;;;;;;1.75;0.93;;;7.80;99.90;;;;;;4380668;32;20090;-77
2022/10/13 01:27:36;;;;;;;0.50;0.50;;;7.80;99.90;;;;;;4391065;32;20082;-78
2022/10/13 01:30:06;;;;;;;1.20;0.80;;;7.80;99.90;;;;;;4390611;32;20098;-78
2022/10/13 01:32:45;;;;;;;1.73;0.80;;;7.80;99.90;;;;;;4387570;32;20121;-77
2022/10/13 01:35:18;;;;;;;0.60;0.60;;;7.80;99.90;;;;;;4359625;32;20082;-78
2022/10/13 01:37:52;;;;;;;0.85;0.82;;;7.70;99.90;;;;;;4383161;32;20537;-78
2022/10/13 01:40:24;;;;;;;4.28;1.08;;;7.70;99.90;;;;;;4392008;32;20536;-78
2022/10/13 01:43:12;;;;;;;3.62;1.73;;;7.60;99.90;;;;;;4393224;32;20078;-78
2022/10/13 01:45:46;;;;;;;1.40;1.05;;;7.60;99.90;;;;;;4382288;32;20082;-77
2022/10/13 01:48:13;;;;;;;0.55;0.55;;;7.60;99.90;;;;;;4391350;32;20145;-78
2022/10/13 01:50:39;;;;;;;0.47;0.47;;;7.50;99.90;;;;;;4389836;32;20418;-78
2022/10/13 01:53:05;;;;;;;0.55;0.55;;;7.60;99.90;;;;;;4392426;32;20162;-78
2022/10/13 01:55:31;;;;;;;0.40;0.40;;;7.70;99.90;;;;;;4391241;32;20545;-77
2022/10/13 01:57:56;;;;;;;0.60;0.60;;;7.80;99.90;;;;;;4391173;32;20082;-78
2022/10/13 02:00:23;;;;;;;1.58;1.23;;;7.80;99.90;;;;;;4388446;32;20078;-79
2022/10/13 02:02:57;;;;;;;1.20;1.02;;;7.90;99.90;;;;;;4389055;32;20070;-78
2022/10/13 02:05:48;;;;;;;11.40;0.70;;;7.90;99.90;;;;;;4373459;32;20210;-78
2022/10/13 02:08:36;;;;;;;0.85;0.85;;;7.90;99.90;;;;;;4389279;32;20416;-78
2022/10/13 02:11:14;;;;;;;0.50;0.50;;;7.90;99.90;;;;;;4391606;32;20518;-78
2022/10/13 02:13:45;;;;;;;1.48;0.90;;;8.00;99.90;;;;;;4390312;32;20090;-78
2022/10/13 02:16:13;;;;;;;0.98;0.80;;;7.90;99.90;;;;;;4388718;32;20143;-78
2022/10/13 02:18:39;;;;;;;0.52;0.52;;;7.90;99.90;;;;;;4388268;32;20067;-77
2022/10/13 02:21:05;;;;;;;0.52;0.52;;;7.80;99.90;;;;;;4392601;32;20066;-77
2022/10/13 02:23:30;;;;;;;0.50;0.50;;;7.90;99.90;;;;;;4394373;32;20497;-78
2022/10/13 02:25:58;;;;;;;0.98;0.95;;;7.90;99.90;;;;;;4394804;32;20102;-77
2022/10/13 02:28:25;;;;;;;0.93;0.93;;;7.70;99.90;;;;;;4396005;32;20518;-78
2022/10/13 02:30:51;;;;;;;1.52;0.82;;;7.70;99.90;;;;;;4391717;32;20119;-77
2022/10/13 02:33:16;;;;;;;0.50;0.50;;;7.70;99.90;;;;;;4383437;32;20569;-78
2022/10/13 02:35:42;;;;;;;0.90;0.50;;;7.80;99.90;;;;;;4375790;32;20128;-78
2022/10/13 02:38:08;;;;;;;0.75;0.75;;;7.80;99.90;;;;;;4391353;32;20091;-78
2022/10/13 02:40:34;;;;;;;0.35;0.35;;;7.80;99.90;;;;;;4392475;32;20089;-78
2022/10/13 02:43:00;;;;;;;0.32;0.32;;;7.70;99.90;;;;;;4390673;32;20949;-77
2022/10/13 02:45:26;;;;;;;0.52;0.52;;;7.60;99.90;;;;;;4394088;32;20086;-77
2022/10/13 02:47:51;;;;;;;0.82;0.82;;;7.50;99.90;;;;;;4390460;32;20451;-78
2022/10/13 02:50:17;;;;;;;1.00;0.75;;;7.50;99.90;;;;;;4392580;32;20058;-77
2022/10/13 02:52:42;;;;;;;44.13;1.33;;;7.40;99.90;;;;;;4393361;32;20078;-77
2022/10/13 02:55:08;;;;;;;1.95;1.17;;;7.50;99.90;;;;;;4392536;32;20090;-77
2022/10/13 02:57:34;;;;;;;0.62;0.62;;;7.40;99.90;;;;;;4394275;32;20093;-77
2022/10/13 03:00:00;;;;;;;0.77;0.73;;;7.40;99.90;;;;;;4393338;32;20170;-78
2022/10/13 03:02:26;;;;;;;0.60;0.60;;;7.60;99.90;;;;;;4392742;32;20708;-77
2022/10/13 03:04:52;;;;;;;4.47;1.15;;;7.60;99.90;;;;;;4375411;32;20192;-78
2022/10/13 03:07:17;;;;;;;0.40;0.40;;;7.50;99.90;;;;;;4384932;32;20219;-77
2022/10/13 03:09:43;;;;;;;0.40;0.40;;;7.40;99.90;;;;;;4396243;32;20067;-77
2022/10/13 03:12:08;;;;;;;0.98;0.95;;;7.40;99.90;;;;;;4394849;32;20117;-78
2022/10/13 03:14:34;;;;;;;1.15;1.05;;;7.40;99.90;;;;;;4393990;32;21551;-77
2022/10/13 03:17:00;;;;;;;4.15;0.57;;;7.50;99.90;;;;;;4393985;32;20561;-78
2022/10/13 03:19:25;;;;;;;0.70;0.65;;;7.40;99.90;;;;;;4393658;32;20561;-77
2022/10/13 03:21:51;;;;;;;0.55;0.55;;;7.50;99.90;;;;;;4392248;32;20082;-77
2022/10/13 03:24:17;;;;;;;0.57;0.57;;;7.50;99.90;;;;;;4393526;32;20091;-78
2022/10/13 03:26:42;;;;;;;12.40;1.52;;;7.60;99.90;;;;;;4393461;32;20093;-78
2022/10/13 03:29:13;;;;;;;0.40;0.40;;;7.50;99.90;;;;;;4394284;32;20075;-78
2022/10/13 03:31:40;;;;;;;0.68;0.62;;;7.50;99.90;;;;;;4390518;32;20074;-78
2022/10/13 03:34:05;;;;;;;0.43;0.43;;;7.50;99.90;;;;;;4379522;32;20150;-78
2022/10/13 03:36:31;;;;;;;0.68;0.68;;;7.50;99.90;;;;;;4379586;32;20469;-78
2022/10/13 03:38:56;;;;;;;2.10;0.77;;;7.50;99.90;;;;;;4393059;32;20120;-77
2022/10/13 03:41:22;;;;;;;0.40;0.40;;;7.40;99.90;;;;;;4393623;32;20345;-77
2022/10/13 03:43:47;;;;;;;0.75;0.75;;;7.50;99.90;;;;;;4391257;32;20093;-78
2022/10/13 03:46:15;;;;;;;0.50;0.50;;;7.50;99.90;;;;;;4392726;32;20082;-78
2022/10/13 03:48:40;;;;;;;0.57;0.57;;;7.50;99.90;;;;;;4394137;32;20541;-77
2022/10/13 03:51:09;;;;;;;0.60;0.60;;;7.40;99.90;;;;;;4391650;32;20137;-77
2022/10/13 03:53:36;;;;;;;0.40;0.40;;;7.40;99.90;;;;;;4393382;32;20533;-78
2022/10/13 03:56:02;;;;;;;0.60;0.60;;;7.40;99.90;;;;;;4393219;32;20102;-76
2022/10/13 03:58:28;;;;;;;0.80;0.80;;;7.50;99.90;;;;;;4393584;32;20091;-77
2022/10/13 04:01:00;;;;;;;0.47;0.47;;;7.50;99.90;;;;;;4390596;32;20093;-77
2022/10/13 04:03:26;;;;;;;0.60;0.60;;;7.50;99.90;;;;;;4383810;32;20113;-78
2022/10/13 04:05:52;;;;;;;0.62;0.62;;;7.40;99.90;;;;;;4375137;32;20506;-78
2022/10/13 04:08:18;;;;;;;0.77;0.77;;;7.40;99.90;;;;;;4392574;32;20085;-77
2022/10/13 04:10:44;;;;;;;4.65;1.45;;;7.30;99.90;;;;;;4393163;32;20090;-78
2022/10/13 04:13:09;;;;;;;2.15;1.42;;;7.30;99.90;;;;;;4394160;32;20134;-77
2022/10/13 04:15:36;;;;;;;0.55;0.47;;;7.30;99.90;;;;;;4391255;32;20093;-77
2022/10/13 04:18:02;;;;;;;0.60;0.60;;;7.30;99.90;;;;;;4391796;32;20588;-77
2022/10/13 04:20:27;;;;;;;0.80;0.73;;;7.40;99.90;;;;;;4393427;32;20066;-78
2022/10/13 04:22:53;;;;;;;0.50;0.50;;;7.30;99.90;;;;;;4358502;32;20102;-78
2022/10/13 04:25:18;;;;;;;0.60;0.60;;;7.40;99.90;;;;;;4361584;32;20194;-78
2022/10/13 04:27:46;;;;;;;2.75;1.27;;;7.50;99.90;;;;;;4354009;32;20086;-78
2022/10/13 04:30:12;;;;;;;4.32;1.62;;;7.50;99.90;;;;;;4360481;32;20078;-79
2022/10/13 04:32:38;;;;;;;1.17;0.73;;;7.50;99.90;;;;;;4352731;32;20457;-78
2022/10/13 04:35:03;;;;;;;61.30;1.30;;;7.50;99.90;;;;;;4342576;32;20086;-78
2022/10/13 04:37:29;;;;;;;0.50;0.50;;;7.40;99.90;;;;;;4366699;32;20097;-78
2022/10/13 04:39:54;;;;;;;0.62;0.62;;;7.50;99.90;;;;;;4393043;32;20124;-78
2022/10/13 04:42:20;;;;;;;0.75;0.75;;;7.40;99.90;;;;;;4391643;32;20102;-77
2022/10/13 04:44:45;;;;;;;5.85;1.73;;;7.40;99.90;;;;;;4392532;32;20066;-77
2022/10/13 04:47:11;;;;;;;0.77;0.77;;;7.50;99.90;;;;;;4391616;32;20113;-77
2022/10/13 04:49:37;;;;;;;0.50;0.50;;;7.50;99.90;;;;;;4392357;32;20101;-77
2022/10/13 04:52:03;;;;;;;0.80;0.80;;;7.50;99.90;;;;;;4381600;32;20412;-78
2022/10/13 04:54:28;;;;;;;0.60;0.60;;;7.60;99.90;;;;;;4355833;32;20102;-78
2022/10/13 04:56:54;;;;;;;0.60;0.60;;;7.60;99.90;;;;;;4367853;32;20232;-77
2022/10/13 04:59:20;;;;;;;1.60;1.27;;;7.60;99.90;;;;;;4391003;32;20192;-77
2022/10/13 05:01:46;;;;;;;0.77;0.77;;;7.60;99.90;;;;;;4377600;32;20432;-77
2022/10/13 05:04:11;;;;;;;1.00;1.00;;;7.60;99.90;;;;;;4349714;32;20915;-78
2022/10/13 05:06:40;;;;;;;0.80;0.80;;;7.60;99.90;;;;;;4350923;32;20217;-78
2022/10/13 05:09:06;;;;;;;1.25;1.08;;;7.50;99.90;;;;;;4351551;32;20325;-78
2022/10/13 05:11:32;;;;;;;1.30;1.10;;;7.60;99.90;;;;;;4352237;32;20066;-78
2022/10/13 05:13:59;;;;;;;2.12;0.88;;;7.60;99.90;;;;;;4344826;32;20086;-78
2022/10/13 05:16:31;;;;;;;2.15;0.80;;;7.70;99.90;;;;;;4358765;32;20321;-78
2022/10/13 05:18:56;;;;;;;0.50;0.50;;;7.60;99.90;;;;;;4309498;32;20296;-78
2022/10/13 05:21:26;;;;;;;0.88;0.85;;;7.60;99.90;;;;;;4329191;32;20489;-78
2022/10/13 05:23:54;;;;;;;1.92;1.30;;;7.60;99.90;;;;;;4300174;32;20513;-77
2022/10/13 05:26:23;;;;;;;2.50;1.27;;;7.60;99.90;;;;;;4310196;32;20981;-78
2022/10/13 05:28:48;;;;;;;0.70;0.70;;;7.50;99.90;;;;;;4332943;32;20291;-78
2022/10/13 05:31:17;;;;;;;0.70;0.62;;;7.50;99.90;;;;;;4296465;32;20380;-78
2022/10/13 05:33:43;;;;;;;2.53;0.77;;;7.60;99.90;;;;;;4324651;32;20971;-78
2022/10/13 05:36:15;;;;;;;0.80;0.80;;;7.70;99.90;;;;;;4333753;32;20348;-78
2022/10/13 05:38:41;;;;;;;15.55;3.30;;;7.80;99.90;;;;;;4337198;32;20157;-78
2022/10/13 05:41:09;;;;;;;1.02;0.90;;;7.80;99.90;;;;;;4336672;32;20299;-78
2022/10/13 05:43:37;;;;;;;5.68;2.00;;;7.80;99.90;;;;;;4346501;32;20380;-78
2022/10/13 05:46:03;;;;;;;0.60;0.60;;;7.80;99.90;;;;;;4357104;32;20353;-78
2022/10/13 05:48:29;;;;;;;8.30;1.25;;;7.70;99.90;;;;;;4366503;32;20236;-78
2022/10/13 05:50:57;;;;;;;1.90;1.10;;;7.70;99.90;;;;;;4356217;32;20093;-78
2022/10/13 05:53:25;;;;;;;26.98;1.27;;;7.60;99.90;;;;;;4363426;32;20213;-78
2022/10/13 05:55:53;;;;;;;0.93;0.68;;;7.60;99.90;;;;;;4362488;32;20308;-77
2022/10/13 05:58:25;;;;;;;1.17;0.90;;;7.60;99.90;;;;;;4364186;32;20256;-78
2022/10/13 06:00:53;;;;;;;3.03;0.70;;;7.70;99.90;;;;;;4353361;32;20224;-76
2022/10/13 06:03:22;;;;;;;4.57;2.10;;;7.70;99.90;;;;;;4359583;32;20110;-77
2022/10/13 06:05:47;;;;;;;1.20;0.77;;;7.70;99.90;;;;;;4352617;32;20150;-78
2022/10/13 06:08:14;;;;;;;1.30;1.10;;;7.70;99.90;;;;;;4369197;32;20081;-77
2022/10/13 06:10:41;;;;;;;2.12;1.17;;;7.70;99.90;;;;;;4380083;32;20553;-78
2022/10/13 06:13:12;;;;;;;0.85;0.85;;;7.70;99.90;;;;;;4374824;32;20111;-79
2022/10/13 06:15:40;;;;;;;0.77;0.70;;;7.60;99.90;;;;;;4367862;32;20090;-78
2022/10/13 06:18:07;;;;;;;3.40;1.42;;;7.60;99.90;;;;;;4375009;32;20404;-78
2022/10/13 06:20:33;;;;;;;0.82;0.82;;;7.60;99.90;;;;;;4365628;32;20516;-78
2022/10/13 06:23:00;;;;;;;0.40;0.40;;;7.60;99.90;;;;;;4371874;32;20106;-78
2022/10/13 06:25:25;;;;;;;10.05;1.17;;;7.70;99.90;;;;;;4367863;32;20583;-77
2022/10/13 06:27:51;;;;;;;2.05;1.27;;;7.70;99.90;;;;;;4379435;32;20201;-77
2022/10/13 06:30:16;;;;;;;1.02;0.95;;;7.80;99.90;;;;;;4364055;32;20460;-79
2022/10/13 06:32:42;;;;;;;3.05;0.90;;;7.90;99.90;;;;;;4365697;32;20368;-79
2022/10/13 06:35:08;;;;;;;1.62;1.00;;;8.00;99.90;;;;;;4349747;32;20083;-76
2022/10/13 06:37:33;;;;;;;1.85;0.73;;;7.90;99.90;;;;;;4361874;32;20369;-78
2022/10/13 06:39:59;;;;;;;0.98;0.88;;;7.90;99.90;;;;;;4366487;32;20149;-78
2022/10/13 06:42:24;;;;;;;0.77;0.77;;;8.00;99.90;;;;;;4373476;32;20988;-77
2022/10/13 06:44:50;;;;;;;0.62;0.62;;;8.00;99.90;;;;;;4372073;32;20501;-78
2022/10/13 06:47:15;;;;;;;0.77;0.77;;;8.00;99.90;;;;;;4378789;32;20090;-78
2022/10/13 06:49:42;;;;;;;1.67;0.77;;;8.10;99.90;;;;;;4362464;32;20436;-77
2022/10/13 06:52:08;;;;;;;0.60;0.60;;;8.10;99.90;;;;;;4364137;32;20083;-79
2022/10/13 06:54:33;;;;;;;1.23;1.12;;;8.10;99.90;;;;;;4368341;32;20074;-77
2022/10/13 06:56:59;;;;;;;2.20;1.12;;;8.20;99.90;;;;;;4368246;32;20101;-77
2022/10/13 06:59:26;;;;;;;1.80;1.10;;;8.10;99.90;;;;;;4362842;32;20608;-77
2022/10/13 07:01:52;;;;;;;0.77;0.77;;;8.20;99.90;;;;;;4358807;32;20106;-77
2022/10/13 07:04:19;;;;;;;0.62;0.62;;;8.10;99.90;;;;;;4359005;32;20083;-78
2022/10/13 07:06:45;;;;;;;0.68;0.57;;;8.20;99.90;;;;;;4356871;32;20078;-77
2022/10/13 07:09:10;;;;;;;23.83;1.30;;;8.10;99.90;;;;;;4370546;32;20191;-78
2022/10/13 07:11:37;;;;;;;2.50;0.77;;;8.20;99.90;;;;;;4362968;32;20221;-77
2022/10/13 07:14:03;;;;;;;3.35;1.60;;;8.10;99.90;;;;;;4364431;32;20078;-78
2022/10/13 07:16:28;;;;;;;1.67;0.95;;;8.20;99.90;;;;;;4373494;32;20548;-78
2022/10/13 07:18:54;;;;;;;3.67;1.90;;;8.20;99.90;;;;;;4361260;32;20537;-79
2022/10/13 07:21:21;;;;;;;4.97;1.55;;;8.30;99.90;;;;;;4358852;32;21070;-79
2022/10/13 07:23:47;;;;;;;0.37;0.37;;;8.40;99.90;;;;;;4332159;32;20188;-78
2022/10/13 07:26:14;;;;;;;2.85;1.02;;;8.50;99.90;;;;;;4362159;32;20065;-77
2022/10/13 07:28:41;;;;;;;1.02;0.93;;;8.60;99.90;;;;;;4346477;32;20275;-77
2022/10/13 07:31:10;;;;;;;2.08;0.82;;;8.80;99.90;;;;;;4348228;32;20218;-77
2022/10/13 07:33:36;;;;;;;8.48;1.33;;;8.90;99.90;;;;;;4331380;32;20094;-77
2022/10/13 07:36:04;;;;;;;1.67;1.05;;;8.90;99.90;;;;;;4335872;32;20200;-80
2022/10/13 07:38:30;;;;;;;0.82;0.82;;;9.00;99.90;;;;;;4349876;32;20154;-79
2022/10/13 07:40:58;;;;;;;1.15;0.90;;;9.00;99.90;;;;;;4359626;32;20455;-78
2022/10/13 07:43:23;;;;;;;3.60;1.05;;;9.10;99.90;;;;;;4361881;32;20324;-79
2022/10/13 07:45:49;;;;;;;3.45;1.85;;;9.10;99.90;;;;;;4358602;32;20172;-79
2022/10/13 07:48:15;;;;;;;0.60;0.60;;;9.20;99.90;;;;;;4355544;32;20296;-78
2022/10/13 07:50:40;;;;;;;1.83;1.35;;;9.30;99.90;;;;;;4337151;32;21015;-80
2022/10/13 07:53:06;;;;;;;0.80;0.80;;;9.50;99.90;;;;;;4325882;32;20158;-78
2022/10/13 07:55:32;;;;;;;2.85;1.20;;;9.80;99.90;;;;;;4351711;32;20082;-77
2022/10/13 07:58:02;;;;;;;0.95;0.95;;;9.90;99.90;;;;;;4341184;32;20937;-77
2022/10/13 08:00:28;;;;;;;4.97;1.83;;;10.10;99.90;;;;;;4337796;32;20245;-78
2022/10/13 08:02:53;;;;;;;1.37;0.95;;;10.20;99.90;;;;;;4344316;32;20273;-78
2022/10/13 08:05:19;;;;;;;2.65;0.85;;;10.40;99.90;;;;;;4337407;32;20312;-77
2022/10/13 08:07:45;;;;;;;0.80;0.70;;;10.50;99.90;;;;;;4357503;32;20327;-79
2022/10/13 08:10:11;;;;;;;0.50;0.50;;;10.50;99.90;;;;;;4354120;32;20122;-79
2022/10/13 08:12:37;;;;;;;2.33;1.37;;;10.60;99.90;;;;;;4354111;32;20066;-78
2022/10/13 08:15:03;;;;;;;28.92;2.10;;;10.70;99.90;;;;;;4356338;32;20454;-79
2022/10/13 08:17:29;;;;;;;1.33;1.23;;;10.80;99.90;;;;;;4357484;32;20101;-79
2022/10/13 08:19:55;;;;;;;0.43;0.43;;;11.00;99.90;;;;;;4355884;32;20556;-79
2022/10/13 08:22:21;;;;;;;0.60;0.60;;;11.10;99.90;;;;;;4365028;32;20133;-79
2022/10/13 08:24:46;;;;;;;1.75;0.90;;;11.20;99.90;;;;;;4360117;32;20659;-79
2022/10/13 08:27:23;;;;;;;1.10;1.00;;;11.40;99.90;;;;;;4369120;32;20121;-79
2022/10/13 08:29:49;;;;;;;0.55;0.55;;;11.50;99.90;;;;;;4368357;32;20502;-79
2022/10/13 08:32:15;;;;;;;2.10;1.48;;;11.60;99.90;;;;;;4372422;32;116806;-79
2022/10/13 08:34:41;;;;;;;11.30;0.90;;;11.70;99.90;;;;;;4348552;32;20406;-79
2022/10/13 08:37:12;;;;;;;2.90;1.08;;;11.70;99.90;;;;;;4349962;32;20085;-78
2022/10/13 08:39:38;;;;;;;4.15;1.15;;;11.80;99.90;;;;;;4360983;32;20083;-79
2022/10/13 08:42:17;;;;;;;1.48;0.80;;;11.90;99.90;;;;;;4363438;32;20132;-78
2022/10/13 08:44:47;;;;;;;1.30;0.88;;;12.00;99.90;;;;;;4352333;32;20077;-78
2022/10/13 08:47:29;;;;;;;3.53;1.50;;;12.10;99.90;;;;;;4359276;32;21215;-79
2022/10/13 08:49:57;;;;;;;1.40;0.88;;;12.20;99.90;;;;;;4353491;32;20249;-79
2022/10/13 08:52:26;;;;;;;1.83;1.48;;;12.40;99.90;;;;;;4367908;32;20113;-79
2022/10/13 08:54:54;;;;;;;0.52;0.52;;;12.60;99.90;;;;;;4361398;32;20920;-79
2022/10/13 08:57:20;;;;;;;8.68;0.73;;;12.60;99.90;;;;;;4362090;32;20350;-79
2022/10/13 08:59:46;;;;;;;1.02;0.77;;;12.80;99.90;;;;;;4354976;32;20082;-79
2022/10/13 09:02:22;;;;;;;1.42;0.98;;;12.80;99.90;;;;;;4371522;32;20105;-79
2022/10/13 09:04:50;;;;;;;0.73;0.65;;;12.80;99.90;;;;;;4349376;32;20204;-79
2022/10/13 09:07:21;;;;;;;0.43;0.43;;;12.70;99.90;;;;;;4353737;32;20097;-79
2022/10/13 09:09:50;;;;;;;1.75;1.17;;;12.70;99.90;;;;;;4354878;32;20106;-79
2022/10/13 09:12:20;;;;;;;2.17;1.10;;;12.80;99.90;;;;;;4355446;32;20079;-80
2022/10/13 09:15:00;;;;;;;36.65;1.85;;;12.90;99.90;;;;;;4359183;32;20101;-80
2022/10/13 09:17:29;;;;;;;1.42;1.00;;;13.00;99.90;;;;;;4355659;32;20122;-79
2022/10/13 09:20:01;;;;;;;0.90;0.82;;;13.10;99.90;;;;;;4360664;32;20086;-80
2022/10/13 09:22:29;;;;;;;1.00;0.80;;;13.00;99.90;;;;;;4349464;32;20596;-81
2022/10/13 09:25:08;;;;;;;5.87;0.90;;;13.10;99.90;;;;;;4334347;32;20813;-78
2022/10/13 09:27:56;;;;;;;3.53;1.12;;;13.20;99.90;;;;;;4339239;32;20581;-79
2022/10/13 09:30:29;;;;;;;2.45;1.27;;;13.30;99.90;;;;;;4348892;32;20081;-78
2022/10/13 09:33:13;;;;;;;3.10;2.15;;;13.40;99.90;;;;;;4361387;32;20305;-78
2022/10/13 09:35:48;;;;;;;10.98;1.30;;;13.50;99.90;;;;;;4356867;32;21048;-77
2022/10/13 09:38:18;;;;;;;2.15;0.90;;;13.50;99.90;;;;;;4367531;32;20142;-78
2022/10/13 09:41:09;;;;;;;0.82;0.80;;;13.60;99.90;;;;;;4372085;32;20086;-77
2022/10/13 09:43:36;;;;;;;;;;;13.80;99.90;;;;;;4358677;32;20082;-77
2022/10/13 09:46:10;;;;;;;4.12;2.22;;;13.80;99.90;;;;;;4372674;32;20036;-77
2022/10/13 09:48:38;;;;;;;0.70;0.70;;;13.90;99.90;;;;;;4364008;32;20082;-78
2022/10/13 09:51:03;;;;;;;0.70;0.70;;;14.00;99.90;;;;;;4348361;32;21021;-77
2022/10/13 09:53:32;;;;;;;0.90;0.85;;;14.00;99.90;;;;;;4351128;32;20090;-77
2022/10/13 09:56:19;;;;;;;0.93;0.93;;;14.10;99.90;;;;;;4371335;32;20291;-78
2022/10/13 09:58:54;;;;;;;8.40;1.52;;;14.20;99.90;;;;;;4365372;32;20102;-78
2022/10/13 10:01:24;;;;;;;1.30;0.82;;;14.30;99.90;;;;;;4363969;32;20109;-78
2022/10/13 10:03:51;;;;;;;16.80;0.98;;;14.50;99.90;;;;;;4347759;32;20107;-77
2022/10/13 10:06:17;;;;;;;0.70;0.60;;;14.60;99.90;;;;;;4361660;32;20125;-78
2022/10/13 10:08:50;;;;;;;1.80;1.33;;;14.70;99.90;;;;;;4375628;32;20177;-77
2022/10/13 10:11:21;;;;;;;1.08;0.73;;;14.90;99.90;;;;;;4370753;32;20209;-77
2022/10/13 10:13:46;;;;;;;0.82;0.82;;;15.10;99.90;;;;;;4375741;32;20164;-78
2022/10/13 10:16:28;;;;;;;4.78;1.23;;;15.10;99.90;;;;;;4371828;32;20146;-77
2022/10/13 10:19:04;;;;;;;7.82;1.60;;;15.10;99.90;;;;;;4366421;32;20154;-78
2022/10/13 10:21:42;;;;;;;0.62;0.62;;;15.20;99.90;;;;;;4359987;32;20094;-79
2022/10/13 10:24:36;;;;;;;3.95;1.70;;;15.30;99.90;;;;;;4364861;32;20452;-78
2022/10/13 10:27:13;;;;;;;23.95;1.02;;;15.10;99.90;;;;;;4363266;32;20364;-78
2022/10/13 10:29:53;;;;;;;2.17;0.75;;;15.20;99.90;;;;;;4365827;32;20294;-77
2022/10/13 10:32:30;;;;;;;2.22;1.15;;;15.30;99.90;;;;;;4366148;32;20098;-77
2022/10/13 10:35:02;;;;;;;0.40;0.40;;;15.60;99.90;;;;;;4359214;32;20304;-79
2022/10/13 10:37:39;;;;;;;0.50;0.50;;;15.70;99.90;;;;;;4370339;32;20077;-77
2022/10/13 10:40:11;;;;;;;1.15;1.00;;;15.70;99.90;;;;;;4379628;32;20864;-78
2022/10/13 10:43:02;;;;;;;4.60;2.15;;;15.70;99.90;;;;;;4382845;32;20546;-78
2022/10/13 10:45:35;;;;;;;0.70;0.70;;;15.80;99.90;;;;;;4367230;32;20095;-80
2022/10/13 10:48:06;;;;;;;1.90;1.08;;;15.80;99.90;;;;;;4367122;32;20596;-80
2022/10/13 10:50:33;;;;;;;1.30;1.20;;;15.70;99.90;;;;;;4364880;32;20121;-79
2022/10/13 10:53:06;;;;;;;10.98;1.40;;;15.80;99.90;;;;;;4357173;32;20166;-78
2022/10/13 10:55:55;;;;;;;1.35;0.90;;;16.00;99.90;;;;;;4376274;32;20238;-80
2022/10/13 10:58:26;;;;;;;0.80;0.80;;;16.10;99.90;;;;;;4371268;32;20115;-77
2022/10/13 11:01:06;;;;;;;3.42;1.20;;;15.80;99.90;;;;;;4352423;32;20147;-78
2022/10/13 11:03:41;;;;;;;2.20;0.73;;;16.10;99.90;;;;;;4361204;32;20086;-79
2022/10/13 11:06:23;;;;;;;0.77;0.73;;;16.10;99.90;;;;;;4368186;32;20425;-78
2022/10/13 11:08:49;;;;;;;0.65;0.47;;;16.30;99.90;;;;;;4372416;32;20164;-78
2022/10/13 11:11:25;;;;;;;1.70;0.88;;;16.60;99.90;;;;;;4378445;32;20086;-76
2022/10/13 11:14:01;;;;;;;1.12;0.65;;;16.70;99.90;;;;;;4379886;32;20077;-78
2022/10/13 11:16:32;;;;;;;1.75;1.00;;;16.70;99.90;;;;;;4377891;32;20058;-79
2022/10/13 11:19:04;;;;;;;2.80;1.58;;;16.90;99.90;;;;;;4356698;32;20074;-80
2022/10/13 11:21:58;;;;;;;9.40;3.22;;;17.10;99.90;;;;;;4361339;32;20336;-77
2022/10/13 11:24:42;;;;;;;2.78;1.12;;;17.20;99.90;;;;;;4356790;32;20113;-76
2022/10/13 11:27:25;;;;;;;1.12;1.10;;;17.30;99.90;;;;;;4375177;32;20097;-77
2022/10/13 11:29:56;;;;;;;2.15;1.45;;;17.40;99.90;;;;;;4362201;32;20106;-77
2022/10/13 11:32:27;;;;;;;15.80;1.52;;;17.60;99.90;;;;;;4362763;32;20285;-77
2022/10/13 11:34:59;;;;;;;0.93;0.85;;;17.50;99.90;;;;;;4358989;32;20758;-77
2022/10/13 11:37:33;;;;;;;0.70;0.70;;;17.40;99.90;;;;;;4371947;32;20070;-77
2022/10/13 11:40:03;;;;;;;1.42;0.98;;;17.30;99.90;;;;;;4374542;32;20062;-77
2022/10/13 11:42:41;;;;;;;0.87;0.87;;;17.20;99.90;;;;;;4381534;32;20555;-78
2022/10/13 11:45:23;;;;;;;0.70;0.70;;;17.20;99.90;;;;;;4374608;32;20102;-77
2022/10/13 11:48:03;;;;;;;2.08;1.48;;;17.10;99.90;;;;;;4374132;32;20337;-78
2022/10/13 11:50:48;;;;;;;1.08;0.98;;;16.90;99.90;;;;;;4364290;32;20141;-76
2022/10/13 11:53:20;;;;;;;1.02;0.73;;;16.90;99.90;;;;;;4358471;32;20111;-78
2022/10/13 11:55:55;;;;;;;2.75;0.50;;;16.90;99.90;;;;;;4381295;32;20149;-77
2022/10/13 11:58:24;;;;;;;2.28;1.65;;;17.00;99.90;;;;;;4373088;32;20129;-77
2022/10/13 12:00:52;;;;;;;3.50;1.42;;;17.10;99.90;;;;;;4368795;32;20281;-78
2022/10/13 12:03:21;;;;;;;0.57;0.57;;;17.10;99.90;;;;;;4366303;32;20090;-77
2022/10/13 12:05:48;;;;;;;1.12;0.55;;;17.10;99.90;;;;;;4365691;32;20062;-77
2022/10/13 12:08:14;;;;;;;5.68;1.98;;;17.20;99.90;;;;;;4377267;32;20082;-77
2022/10/13 12:10:40;;;;;;;1.62;0.95;;;17.30;99.90;;;;;;4377803;32;20100;-77
2022/10/13 12:13:06;;;;;;;2.72;0.55;;;17.30;99.90;;;;;;4382116;32;20090;-78
2022/10/13 12:15:35;;;;;;;0.77;0.70;;;17.60;99.90;;;;;;4382056;32;20093;-78
2022/10/13 12:18:17;;;;;;;0.60;0.60;;;18.00;99.90;;;;;;4376249;32;20580;-78
2022/10/13 12:20:52;;;;;;;3.20;1.35;;;18.30;99.90;;;;;;4352328;32;20440;-78
2022/10/13 12:23:17;;;;;;;2.30;1.23;;;18.60;99.90;;;;;;4359428;32;20129;-78
2022/10/13 12:25:46;;;;;;;2.53;1.20;;;18.60;99.90;;;;;;4380500;32;20590;-78
2022/10/13 12:28:18;;;;;;;0.55;0.55;;;18.50;99.90;;;;;;4372810;32;20074;-78
2022/10/13 12:30:51;;;;;;;1.60;1.50;;;18.50;99.90;;;;;;4367923;32;20249;-78
2022/10/13 12:33:35;;;;;;;0.52;0.52;;;18.40;99.90;;;;;;4363947;32;20743;-79
2022/10/13 12:36:18;;;;;;;0.68;0.68;;;18.20;99.90;;;;;;4365562;32;20937;-79
2022/10/13 12:38:49;;;;;;;5.03;1.15;;;18.10;99.90;;;;;;4376336;32;20549;-78
2022/10/13 12:41:17;;;;;;;;;;;18.00;99.90;;;;;;4381096;32;20083;-79
2022/10/13 12:43:45;;;;;;;3.65;1.42;;;17.90;99.90;;;;;;4381752;32;19967;-78
2022/10/13 12:46:10;;;;;;;3.42;0.93;;;17.70;99.90;;;;;;4378253;32;20435;-79
2022/10/13 12:48:37;;;;;;;1.62;0.55;;;17.50;99.90;;;;;;4364734;32;20962;-78
2022/10/13 12:51:25;;;;;;;0.70;0.70;;;17.30;99.90;;;;;;4358205;32;20563;-78
2022/10/13 12:53:50;;;;;;;0.68;0.55;;;17.40;99.90;;;;;;4360575;32;20625;-77
2022/10/13 12:56:32;;;;;;;0.77;0.65;;;17.40;99.90;;;;;;4378844;32;20214;-77
2022/10/13 12:58:58;;;;;;;0.82;0.80;;;17.30;99.90;;;;;;4368575;32;20130;-78
2022/10/13 13:01:27;;;;;;;1.00;0.77;;;17.20;99.90;;;;;;4366434;32;20325;-78
2022/10/13 13:03:55;;;;;;;0.77;0.77;;;17.20;99.90;;;;;;4356320;32;20671;-78
2022/10/13 13:06:26;;;;;;;1.23;1.00;;;17.20;99.90;;;;;;4367483;32;20204;-78